Time;durP1;ratioP1;P1;durP2;ratioP2;P2;SDS_P1;SDS_P2;PMS_P1;PMS_P2;Temp;Humidity;BMP_temperature;BMP_pressure;BME280_temperature;BME280_humidity;BME280_pressure;Samples;Min_cycle;Max_cycle;Signal;HPM_P1;HPM_P2
2021/11/14 00:01:57;;;;;;;105.32;56.70;;;;;;;7.90;100.00;101662.03;5033914;28;20413;-91
2021/11/14 00:04:22;;;;;;;127.53;62.20;;;;;;;7.87;100.00;101664.06;5017507;28;20136;-91
2021/11/14 00:06:48;;;;;;;108.05;58.42;;;;;;;7.87;100.00;101666.72;5039307;28;20021;-91
2021/11/14 00:09:14;;;;;;;119.28;60.35;;;;;;;7.86;100.00;101673.03;5016331;28;20778;-91
2021/11/14 00:11:40;;;;;;;120.60;60.08;;;;;;;7.81;100.00;101673.31;5033995;28;20034;-91
2021/11/14 00:14:05;;;;;;;122.97;58.80;;;;;;;7.77;100.00;101677.97;5016397;28;20028;-91
2021/11/14 00:16:31;;;;;;;117.05;58.85;;;;;;;7.82;100.00;101681.25;5016250;28;20026;-91
2021/11/14 00:18:57;;;;;;;119.45;60.75;;;;;;;7.79;100.00;101684.13;5034102;28;20033;-91
2021/11/14 00:21:25;;;;;;;111.03;58.13;;;;;;;7.75;100.00;101687.09;5033274;28;20033;-92
2021/11/14 00:23:50;;;;;;;106.65;58.38;;;;;;;7.70;100.00;101683.81;5027084;28;20017;-91
2021/11/14 00:26:16;;;;;;;106.65;59.25;;;;;;;7.72;100.00;101687.28;5042645;28;20080;-91
2021/11/14 00:28:42;;;;;;;122.65;61.13;;;;;;;7.68;100.00;101688.41;5015382;28;20430;-91
2021/11/14 00:31:13;;;;;;;106.68;59.83;;;;;;;7.74;100.00;101698.72;5030912;28;20040;-91
2021/11/14 00:33:42;;;;;;;106.10;57.05;;;;;;;7.74;100.00;101704.94;5031175;28;20846;-91
2021/11/14 00:36:10;;;;;;;113.63;60.17;;;;;;;7.75;100.00;101698.66;5030618;28;20041;-91
2021/11/14 00:38:35;;;;;;;112.88;60.20;;;;;;;7.74;100.00;101704.09;5029986;28;20107;-91
2021/11/14 00:41:01;;;;;;;108.43;59.88;;;;;;;7.77;100.00;101710.13;5014458;28;20021;-91
2021/11/14 00:43:26;;;;;;;110.22;58.53;;;;;;;7.75;100.00;101701.34;5033940;28;20113;-91
2021/11/14 00:45:52;;;;;;;121.55;64.95;;;;;;;7.76;100.00;101707.53;5031290;28;20048;-91
2021/11/14 00:48:17;;;;;;;114.93;60.55;;;;;;;7.76;100.00;101702.19;5013046;28;20036;-91
2021/11/14 00:50:45;;;;;;;110.10;58.63;;;;;;;7.79;100.00;101708.22;5032269;28;20082;-91
2021/11/14 00:53:12;;;;;;;110.70;60.33;;;;;;;7.74;100.00;101707.63;5025668;28;20055;-91
2021/11/14 00:55:38;;;;;;;111.68;60.00;;;;;;;7.77;100.00;101706.59;5017074;28;20033;-91
2021/11/14 00:58:04;;;;;;;125.55;63.30;;;;;;;7.78;100.00;101717.22;5036422;28;20029;-91
2021/11/14 01:00:30;;;;;;;122.75;63.40;;;;;;;7.75;100.00;101714.72;5034824;28;20503;-91
2021/11/14 01:02:57;;;;;;;129.07;62.67;;;;;;;7.78;100.00;101714.53;5033311;28;20512;-90
2021/11/14 01:05:25;;;;;;;114.20;61.25;;;;;;;7.72;100.00;101720.25;5035641;28;20030;-91
2021/11/14 01:07:52;;;;;;;116.00;61.58;;;;;;;7.76;100.00;101728.97;5039424;28;20037;-92
2021/11/14 01:10:23;;;;;;;114.72;62.00;;;;;;;7.75;100.00;101732.63;5016924;28;20064;-91
2021/11/14 01:12:49;;;;;;;124.10;62.40;;;;;;;7.75;100.00;101736.16;5044522;28;20021;-91
2021/11/14 01:15:16;;;;;;;123.68;61.75;;;;;;;7.76;100.00;101729.81;5019608;28;20116;-91
2021/11/14 01:17:42;;;;;;;125.90;61.67;;;;;;;7.77;100.00;101730.69;5033234;28;20041;-91
2021/11/14 01:20:11;;;;;;;121.78;60.80;;;;;;;7.75;100.00;101737.97;5033502;28;20576;-91
2021/11/14 01:22:37;;;;;;;125.25;64.53;;;;;;;7.72;100.00;101735.47;5028527;28;20049;-92
2021/11/14 01:25:04;;;;;;;135.75;64.78;;;;;;;7.77;100.00;101749.41;5033291;28;20116;-91
2021/11/14 01:27:30;;;;;;;126.53;62.83;;;;;;;7.78;100.00;101745.81;5033251;28;20048;-91
2021/11/14 01:29:56;;;;;;;134.55;65.00;;;;;;;7.77;100.00;101741.41;5033772;28;20029;-91
2021/11/14 01:32:21;;;;;;;117.57;62.47;;;;;;;7.81;100.00;101754.53;5019212;28;20029;-91
2021/11/14 01:34:48;;;;;;;119.95;61.33;;;;;;;7.83;100.00;101754.41;5039917;28;20026;-91
2021/11/14 01:37:13;;;;;;;117.72;61.20;;;;;;;7.82;100.00;101753.56;5037916;28;20037;-91
2021/11/14 01:39:39;;;;;;;117.82;61.42;;;;;;;7.87;100.00;101760.47;5035275;28;20060;-91
2021/11/14 01:42:05;;;;;;;141.27;68.30;;;;;;;7.83;100.00;101763.31;5035458;28;20807;-90
2021/11/14 01:44:30;;;;;;;129.43;64.20;;;;;;;7.89;100.00;101761.22;5016177;28;20085;-91
2021/11/14 01:46:55;;;;;;;120.00;62.42;;;;;;;7.92;100.00;101763.72;5016709;28;20033;-91
2021/11/14 01:49:21;;;;;;;124.68;60.50;;;;;;;7.91;100.00;101767.34;5039129;28;20017;-91
2021/11/14 01:51:46;;;;;;;122.40;61.40;;;;;;;7.92;100.00;101766.38;5019517;28;20037;-91
2021/11/14 01:54:13;;;;;;;133.13;64.57;;;;;;;7.92;100.00;101777.94;5033869;28;20033;-91
2021/11/14 01:56:38;;;;;;;128.85;66.45;;;;;;;7.89;100.00;101769.25;5032796;28;20087;-91
2021/11/14 01:59:04;;;;;;;132.75;66.32;;;;;;;7.92;100.00;101774.41;5033564;28;20958;-91
2021/11/14 02:01:32;;;;;;;128.05;64.03;;;;;;;7.92;100.00;101771.75;5014800;28;20052;-91
2021/11/14 02:04:02;;;;;;;145.60;66.97;;;;;;;7.94;100.00;101772.53;5033238;28;20030;-91
2021/11/14 02:06:28;;;;;;;147.73;65.43;;;;;;;7.90;100.00;101773.66;5032456;28;20120;-91
2021/11/14 02:08:54;;;;;;;142.00;65.35;;;;;;;7.90;100.00;101776.34;5033229;28;20033;-91
2021/11/14 02:11:20;;;;;;;136.75;65.72;;;;;;;7.89;100.00;101782.63;5032049;28;20030;-91
2021/11/14 02:13:48;;;;;;;145.27;66.25;;;;;;;7.89;100.00;101786.19;5017641;28;20022;-91
2021/11/14 02:16:16;;;;;;;162.40;68.57;;;;;;;7.85;100.00;101786.47;5037320;28;20453;-91
2021/11/14 02:18:41;;;;;;;140.23;64.85;;;;;;;7.88;100.00;101787.13;5031616;28;20053;-91
2021/11/14 02:21:08;;;;;;;159.07;68.07;;;;;;;7.86;100.00;101791.72;5038335;28;20556;-91
2021/11/14 02:23:36;;;;;;;162.05;68.80;;;;;;;7.90;100.00;101790.59;5033971;28;20413;-91
2021/11/14 02:26:03;;;;;;;159.73;68.28;;;;;;;7.91;100.00;101795.00;5033727;28;20029;-91
2021/11/14 02:28:28;;;;;;;145.55;66.95;;;;;;;7.92;100.00;101795.84;5033152;28;20091;-91
2021/11/14 02:30:56;;;;;;;169.35;69.43;;;;;;;7.92;100.00;101802.06;5016515;28;20029;-91
2021/11/14 02:33:22;;;;;;;152.52;68.07;;;;;;;7.94;100.00;101804.66;5031657;28;20033;-91
2021/11/14 02:35:51;;;;;;;155.43;68.72;;;;;;;7.99;100.00;101806.13;5014980;28;20120;-91
2021/11/14 02:38:18;;;;;;;144.98;65.18;;;;;;;7.99;100.00;101805.25;5033281;28;20452;-92
2021/11/14 02:40:44;;;;;;;147.38;65.35;;;;;;;7.98;100.00;101809.72;5032744;28;20533;-91
2021/11/14 02:43:11;;;;;;;150.65;67.82;;;;;;;7.94;100.00;101802.84;5032702;28;20033;-91
2021/11/14 02:45:37;;;;;;;137.13;62.97;;;;;;;7.93;100.00;101801.13;5019699;28;20060;-91
2021/11/14 02:48:04;;;;;;;164.27;68.35;;;;;;;7.93;100.00;101811.84;5034982;28;20482;-91
2021/11/14 02:50:31;;;;;;;144.00;64.38;;;;;;;7.92;100.00;101814.59;5030784;28;20025;-91
2021/11/14 02:52:57;;;;;;;149.80;64.13;;;;;;;7.95;100.00;101815.25;5031461;28;20064;-91
2021/11/14 02:55:25;;;;;;;149.32;64.05;;;;;;;7.97;100.00;101824.09;5014709;28;20068;-91
2021/11/14 02:57:52;;;;;;;145.40;65.93;;;;;;;7.97;100.00;101817.88;5032666;28;20554;-91
2021/11/14 03:00:29;;;;;;;156.02;67.13;;;;;;;7.92;100.00;101826.16;5032873;28;20537;-91
2021/11/14 03:02:55;;;;;;;156.00;65.78;;;;;;;8.00;100.00;101834.63;5032305;28;20041;-91
2021/11/14 03:05:22;;;;;;;142.00;63.75;;;;;;;8.00;100.00;101833.75;5019809;28;20029;-91
2021/11/14 03:07:49;;;;;;;159.25;65.57;;;;;;;8.01;100.00;101835.47;5014613;28;20120;-91
2021/11/14 03:10:20;;;;;;;142.32;63.58;;;;;;;8.02;100.00;101832.72;5030899;28;20044;-91
2021/11/14 03:13:00;;;;;;;148.88;65.68;;;;;;;8.02;100.00;101832.72;5014518;28;20064;-91
2021/11/14 03:15:29;;;;;;;140.15;63.15;;;;;;;8.05;100.00;101837.03;5022454;28;20041;-91
2021/11/14 03:17:55;;;;;;;140.18;64.03;;;;;;;8.08;100.00;101831.50;5032728;28;20026;-91
2021/11/14 03:20:21;;;;;;;142.70;65.18;;;;;;;8.06;100.00;101836.06;5015846;28;20025;-91
2021/11/14 03:22:46;;;;;;;148.18;65.45;;;;;;;8.10;100.00;101831.38;5033524;28;20025;-91
2021/11/14 03:25:12;;;;;;;135.18;60.20;;;;;;;8.05;100.00;101839.72;5014641;28;20036;-91
2021/11/14 03:27:37;;;;;;;154.13;65.47;;;;;;;8.06;100.00;101841.44;5014105;28;20025;-91
2021/11/14 03:30:05;;;;;;;140.00;64.30;;;;;;;8.07;100.00;101840.47;5030304;28;20044;-91
2021/11/14 03:32:30;;;;;;;141.40;63.70;;;;;;;8.10;100.00;101847.44;5031319;28;20094;-91
2021/11/14 03:34:55;;;;;;;144.65;64.80;;;;;;;8.10;100.00;101847.44;5016693;28;20579;-91
2021/11/14 03:37:22;;;;;;;139.43;65.32;;;;;;;8.07;100.00;101852.03;5031713;28;20034;-91
2021/11/14 03:39:48;;;;;;;143.25;62.42;;;;;;;8.07;100.00;101853.84;5013774;28;20022;-91
2021/11/14 03:42:15;;;;;;;147.98;63.67;;;;;;;8.07;100.00;101852.03;5022451;28;20030;-91
2021/11/14 03:44:41;;;;;;;137.68;62.95;;;;;;;8.06;100.00;101855.69;5031994;28;20055;-91
2021/11/14 03:47:08;;;;;;;138.70;63.95;;;;;;;8.02;100.00;101853.28;5031504;28;20108;-91
2021/11/14 03:49:34;;;;;;;147.85;64.97;;;;;;;8.03;100.00;101858.53;5031394;28;20033;-91
2021/11/14 03:52:00;;;;;;;143.57;62.38;;;;;;;8.06;100.00;101860.19;5029747;28;20034;-91
2021/11/14 03:54:26;;;;;;;133.07;62.83;;;;;;;8.02;100.00;101853.28;5031668;28;20393;-91
2021/11/14 03:56:51;;;;;;;136.55;62.33;;;;;;;8.04;100.00;101862.06;5029990;28;20037;-91
2021/11/14 03:59:17;;;;;;;139.35;62.38;;;;;;;8.03;100.00;101860.38;5017637;28;20040;-91
2021/11/14 04:01:43;;;;;;;142.27;65.05;;;;;;;8.05;100.00;101869.19;5013023;28;20064;-91
2021/11/14 04:04:09;;;;;;;141.82;64.38;;;;;;;8.02;100.00;101866.69;5031202;28;20108;-91
2021/11/14 04:06:34;;;;;;;148.70;65.45;;;;;;;8.02;100.00;101869.38;5038813;28;20139;-90
2021/11/14 04:09:00;;;;;;;138.20;63.03;;;;;;;8.00;100.00;101872.13;5013256;28;20025;-91
2021/11/14 04:11:26;;;;;;;146.25;64.65;;;;;;;8.01;100.00;101875.66;5029919;28;20025;-91
2021/11/14 04:13:52;;;;;;;143.95;64.97;;;;;;;8.00;100.00;101879.28;5029652;28;20025;-91
2021/11/14 04:16:19;;;;;;;133.82;60.60;;;;;;;8.00;100.00;101879.28;5031183;28;20021;-91
2021/11/14 04:18:45;;;;;;;142.02;63.47;;;;;;;7.99;100.00;101880.25;5029474;28;20026;-91
2021/11/14 04:21:11;;;;;;;147.45;64.15;;;;;;;8.00;100.00;101890.00;5029718;28;20033;-91
2021/11/14 04:23:38;;;;;;;141.75;63.88;;;;;;;8.00;100.00;101887.34;5032406;28;20397;-91
2021/11/14 04:26:04;;;;;;;136.77;65.20;;;;;;;7.95;100.00;101892.09;5030836;28;20128;-91
2021/11/14 04:28:30;;;;;;;133.38;63.60;;;;;;;8.01;100.00;101895.25;5038253;28;20634;-91
2021/11/14 04:30:55;;;;;;;135.35;61.30;;;;;;;7.99;100.00;101899.00;5030850;28;20077;-91
2021/11/14 04:33:21;;;;;;;129.07;62.10;;;;;;;8.01;100.00;101905.13;5013148;28;20076;-91
2021/11/14 04:35:46;;;;;;;135.32;60.60;;;;;;;8.04;100.00;101907.63;5030594;28;20115;-90
2021/11/14 04:38:12;;;;;;;135.10;60.08;;;;;;;8.04;100.00;101908.47;5031715;28;20033;-91
2021/11/14 04:40:41;;;;;;;132.55;62.03;;;;;;;8.06;100.00;101911.09;5012693;28;20090;-91
2021/11/14 04:43:08;;;;;;;133.80;61.80;;;;;;;8.07;100.00;101907.44;5030793;28;20061;-91
2021/11/14 04:45:34;;;;;;;130.55;58.03;;;;;;;8.07;100.00;101910.13;5030346;28;20033;-91
2021/11/14 04:48:00;;;;;;;122.13;56.60;;;;;;;8.06;100.00;101911.09;5031703;28;20127;-91
2021/11/14 04:50:25;;;;;;;128.07;59.88;;;;;;;8.03;100.00;101913.94;5030863;28;20484;-91
2021/11/14 04:52:52;;;;;;;119.55;57.25;;;;;;;8.07;100.00;101920.84;5032402;28;20029;-91
2021/11/14 04:55:17;;;;;;;132.02;57.03;;;;;;;8.07;100.00;101915.47;5013428;28;20033;-91
2021/11/14 04:57:49;;;;;;;121.65;56.45;;;;;;;8.02;100.00;101923.81;5012609;28;20072;-91
2021/11/14 05:00:15;;;;;;;117.63;52.95;;;;;;;8.06;100.00;101919.97;5030967;28;20033;-91
2021/11/14 05:02:41;;;;;;;116.90;58.35;;;;;;;8.06;100.00;101929.84;5030602;28;20508;-91
2021/11/14 05:05:08;;;;;;;113.68;53.97;;;;;;;8.02;100.00;101922.94;5030344;28;20029;-90
2021/11/14 05:07:34;;;;;;;113.63;54.22;;;;;;;8.04;100.00;101929.91;5028822;28;20021;-91
2021/11/14 05:10:00;;;;;;;115.10;54.00;;;;;;;8.03;100.00;101930.00;5029591;28;20029;-90
2021/11/14 05:12:25;;;;;;;113.88;55.10;;;;;;;8.04;100.00;101932.59;5013649;28;20029;-90
2021/11/14 05:14:50;;;;;;;107.38;52.22;;;;;;;8.03;100.00;101935.38;5012529;28;20128;-90
2021/11/14 05:17:16;;;;;;;112.85;53.03;;;;;;;7.98;100.00;101934.78;5033226;28;20053;-91
2021/11/14 05:19:41;;;;;;;103.18;51.97;;;;;;;8.01;100.00;101934.59;5029362;28;20037;-91
2021/11/14 05:22:07;;;;;;;104.75;50.38;;;;;;;8.06;100.00;101936.06;5028837;28;20040;-91
2021/11/14 05:24:32;;;;;;;104.95;50.08;;;;;;;8.03;100.00;101941.59;5031826;28;20036;-91
2021/11/14 05:26:58;;;;;;;101.80;46.63;;;;;;;8.04;100.00;101945.13;5030604;28;20033;-90
2021/11/14 05:29:24;;;;;;;103.93;49.50;;;;;;;8.03;100.00;101943.41;5012421;28;20053;-91
2021/11/14 05:31:50;;;;;;;98.55;48.47;;;;;;;8.03;100.00;101946.09;5029253;28;20052;-91
2021/11/14 05:34:15;;;;;;;101.22;48.38;;;;;;;8.03;100.00;101951.44;5030293;28;20025;-91
2021/11/14 05:36:40;;;;;;;101.93;49.08;;;;;;;8.05;100.00;101957.59;5017703;28;20060;-90
2021/11/14 05:39:06;;;;;;;100.45;46.20;;;;;;;8.06;100.00;101959.31;5018814;28;20376;-90
2021/11/14 05:41:31;;;;;;;94.70;46.20;;;;;;;8.05;100.00;101965.63;5036654;28;20025;-91
2021/11/14 05:43:56;;;;;;;102.25;47.88;;;;;;;8.02;100.00;101961.31;5039957;28;20041;-91
2021/11/14 05:46:22;;;;;;;93.38;44.22;;;;;;;8.06;100.00;101976.25;5018910;28;20033;-90
2021/11/14 05:48:47;;;;;;;103.05;47.90;;;;;;;8.11;100.00;101970.63;5036753;28;20028;-91
2021/11/14 05:51:12;;;;;;;100.78;47.90;;;;;;;8.09;100.00;101977.03;5035127;28;20040;-90
2021/11/14 05:53:38;;;;;;;102.72;48.67;;;;;;;8.12;100.00;101985.75;5019047;28;20026;-91
2021/11/14 05:56:04;;;;;;;92.72;48.20;;;;;;;8.13;100.00;101984.78;5035311;28;20025;-91
2021/11/14 05:58:46;;;;;;;97.30;45.25;;;;;;;8.14;100.00;101991.88;5018716;28;20017;-91
2021/11/14 06:01:18;;;;;;;98.05;48.30;;;;;;;8.15;100.00;101993.59;5018073;28;20057;-91
2021/11/14 06:06:09;;;;;;;100.88;48.33;;;;;;;8.12;100.00;101992.91;5034104;28;20030;-91
2021/11/14 06:08:35;;;;;;;99.25;46.67;;;;;;;8.09;100.00;101995.78;5023248;28;20120;-91
2021/11/14 06:11:00;;;;;;;106.00;47.67;;;;;;;8.13;100.00;102000.00;5015329;28;20029;-92
2021/11/14 06:13:28;;;;;;;96.78;47.50;;;;;;;8.15;100.00;102004.31;5033575;28;20040;-91
2021/11/14 06:15:54;;;;;;;94.13;44.38;;;;;;;8.17;100.00;102004.22;5052178;28;20078;-91
2021/11/14 06:18:21;;;;;;;95.35;46.50;;;;;;;8.12;100.00;102017.03;5016139;28;20036;-90
2021/11/14 06:20:46;;;;;;;86.07;44.70;;;;;;;8.14;100.00;102012.44;5033175;28;20037;-90
2021/11/14 06:23:13;;;;;;;89.85;43.40;;;;;;;8.15;100.00;102019.53;5032449;28;20497;-90
2021/11/14 06:25:38;;;;;;;107.40;49.38;;;;;;;8.16;100.00;102023.94;5031372;28;20025;-91
2021/11/14 06:28:04;;;;;;;95.28;45.95;;;;;;;8.15;100.00;102032.94;5033123;28;20619;-90
2021/11/14 06:30:29;;;;;;;105.22;45.85;;;;;;;8.17;100.00;102034.59;5033159;28;20089;-91
2021/11/14 06:32:56;;;;;;;93.82;45.30;;;;;;;8.15;100.00;102036.47;5031960;28;20033;-91
2021/11/14 06:35:22;;;;;;;98.60;46.97;;;;;;;8.16;100.00;102038.19;5014998;28;20037;-90
2021/11/14 06:37:47;;;;;;;99.93;47.17;;;;;;;8.15;100.00;102049.88;5015477;28;20676;-91
2021/11/14 06:40:13;;;;;;;98.50;47.30;;;;;;;8.18;100.00;102057.72;5031944;28;20115;-91
2021/11/14 06:42:39;;;;;;;96.93;46.42;;;;;;;8.16;100.00;102058.78;5031204;28;20389;-91
2021/11/14 06:45:05;;;;;;;96.15;45.92;;;;;;;8.17;100.00;102058.69;5040046;28;20021;-91
2021/11/14 06:47:31;;;;;;;88.22;44.22;;;;;;;8.14;100.00;102074.06;5014436;28;20580;-90
2021/11/14 06:49:56;;;;;;;94.88;46.22;;;;;;;8.15;100.00;102071.31;5031292;28;20086;-91
2021/11/14 06:52:22;;;;;;;94.75;43.50;;;;;;;8.15;100.00;102081.16;5032691;28;20021;-91
2021/11/14 06:54:49;;;;;;;93.82;44.38;;;;;;;8.11;100.00;102088.53;5032614;28;20481;-90
2021/11/14 06:57:14;;;;;;;98.68;47.35;;;;;;;8.14;100.00;102085.66;5032138;28;20032;-90
2021/11/14 06:59:40;;;;;;;85.55;43.53;;;;;;;8.16;100.00;102086.44;5032315;28;20025;-90
2021/11/14 07:02:06;;;;;;;100.18;45.63;;;;;;;8.16;100.00;102086.44;5031702;28;20110;-90
2021/11/14 07:04:32;;;;;;;99.88;47.85;;;;;;;8.17;100.00;102092.66;5030834;28;20544;-91
2021/11/14 07:06:57;;;;;;;93.28;44.78;;;;;;;8.15;100.00;102097.25;5014941;28;20067;-91
2021/11/14 07:09:23;;;;;;;98.65;45.88;;;;;;;8.16;100.00;102105.19;5032093;28;20485;-92
2021/11/14 07:11:50;;;;;;;93.28;44.20;;;;;;;8.17;100.00;102104.25;5015791;28;20227;-92
2021/11/14 07:14:15;;;;;;;99.70;45.65;;;;;;;8.18;100.00;102107.78;5033994;28;20021;-91
2021/11/14 07:16:41;;;;;;;88.93;42.83;;;;;;;8.18;100.00;102111.34;5033133;28;20044;-92
2021/11/14 07:19:06;;;;;;;100.43;45.15;;;;;;;8.19;100.00;102102.31;5042744;28;20543;-92
2021/11/14 07:21:32;;;;;;;92.18;45.33;;;;;;;8.20;100.00;102103.19;5015009;28;20033;-92
2021/11/14 07:23:58;;;;;;;93.38;45.90;;;;;;;8.22;100.00;102112.00;5032883;28;20075;-93
2021/11/14 07:26:23;;;;;;;91.03;44.22;;;;;;;8.26;100.00;102111.78;5015060;28;20068;-93
2021/11/14 07:28:48;;;;;;;91.28;45.00;;;;;;;8.25;100.00;102106.47;5032179;28;20037;-93
2021/11/14 07:31:14;;;;;;;95.30;46.13;;;;;;;8.24;100.00;102112.81;5014576;28;20043;-92
2021/11/14 07:33:39;;;;;;;86.32;43.67;;;;;;;8.32;100.00;102120.41;5031850;28;20037;-91
2021/11/14 07:36:05;;;;;;;90.95;44.13;;;;;;;8.29;100.00;102118.75;5030743;28;20037;-91
2021/11/14 07:38:30;;;;;;;85.57;44.55;;;;;;;8.34;100.00;102123.88;5033228;28;20029;-91
2021/11/14 07:40:55;;;;;;;81.65;41.05;;;;;;;8.34;100.00;102137.25;5013532;28;20025;-91
2021/11/14 07:43:21;;;;;;;88.63;43.15;;;;;;;8.36;100.00;102148.78;5017063;28;20029;-90
2021/11/14 07:45:46;;;;;;;81.68;41.03;;;;;;;8.37;100.00;102145.13;5031671;28;20140;-91
2021/11/14 07:48:12;;;;;;;85.15;42.00;;;;;;;8.40;100.00;102153.88;5031548;28;20029;-90
2021/11/14 07:50:39;;;;;;;90.13;42.97;;;;;;;8.46;100.00;102152.69;5032547;28;20061;-91
2021/11/14 07:53:05;;;;;;;88.97;43.17;;;;;;;8.43;100.00;102153.72;5014554;28;20029;-91
2021/11/14 07:55:31;;;;;;;81.30;41.03;;;;;;;8.49;100.00;102157.88;5032158;28;20025;-91
2021/11/14 07:57:58;;;;;;;78.22;41.45;;;;;;;8.54;100.00;102154.91;5038326;28;20037;-91
2021/11/14 08:00:25;;;;;;;85.90;42.30;;;;;;;8.54;100.00;102160.28;5031557;28;20095;-91
2021/11/14 08:02:51;;;;;;;81.53;41.22;;;;;;;8.55;100.00;102165.56;5030851;28;20458;-91
2021/11/14 08:05:18;;;;;;;83.75;41.63;;;;;;;8.57;100.00;102163.66;5013542;28;20029;-91
2021/11/14 08:07:45;;;;;;;79.10;40.13;;;;;;;8.58;100.00;102172.56;5032132;28;20084;-91
2021/11/14 08:10:12;;;;;;;77.07;40.03;;;;;;;8.58;100.00;102173.44;5031460;28;20035;-91
2021/11/14 08:12:38;;;;;;;76.13;39.65;;;;;;;8.58;100.00;102184.16;5019998;28;20041;-91
2021/11/14 08:15:04;;;;;;;76.57;39.65;;;;;;;8.54;100.00;102185.28;5030495;28;20116;-91
2021/11/14 08:17:30;;;;;;;77.82;38.75;;;;;;;8.61;100.00;102189.34;5014729;28;20056;-90
2021/11/14 08:19:58;;;;;;;74.47;39.80;;;;;;;8.57;100.00;102193.16;5030786;28;20115;-91
2021/11/14 08:22:23;;;;;;;77.40;38.85;;;;;;;8.58;100.00;102199.38;5031219;28;20034;-91
2021/11/14 08:24:49;;;;;;;80.82;38.28;;;;;;;8.60;100.00;102203.72;5013933;28;20038;-91
2021/11/14 08:27:14;;;;;;;71.95;38.08;;;;;;;8.57;100.00;102209.25;5015445;28;20045;-91
2021/11/14 08:29:39;;;;;;;82.07;41.17;;;;;;;8.50;100.00;102214.06;5039411;28;20136;-90
2021/11/14 08:32:05;;;;;;;81.93;41.50;;;;;;;8.51;100.00;102213.16;5014645;28;20033;-91
2021/11/14 08:34:31;;;;;;;70.55;38.45;;;;;;;8.58;100.00;102221.69;5030997;28;20026;-91
2021/11/14 08:36:56;;;;;;;76.55;40.42;;;;;;;8.61;100.00;102220.66;5013363;28;20116;-91
2021/11/14 08:39:22;;;;;;;70.30;37.85;;;;;;;8.50;100.00;102219.44;5029756;28;20512;-91
2021/11/14 08:41:47;;;;;;;79.43;38.83;;;;;;;8.62;100.00;102219.72;5033236;28;20060;-91
2021/11/14 08:44:12;;;;;;;74.22;36.75;;;;;;;8.60;100.00;102225.19;5035449;28;20033;-91
2021/11/14 08:46:38;;;;;;;76.88;38.80;;;;;;;8.57;100.00;102229.81;5013107;28;20084;-91
2021/11/14 08:49:04;;;;;;;74.97;37.95;;;;;;;8.63;100.00;102238.41;5029293;28;20562;-91
2021/11/14 08:51:29;;;;;;;76.45;38.17;;;;;;;8.63;100.00;102241.09;5029855;28;20107;-91
2021/11/14 08:53:58;;;;;;;75.65;39.25;;;;;;;8.63;100.00;102238.41;5029780;28;20029;-91
2021/11/14 08:56:27;;;;;;;71.78;37.75;;;;;;;8.65;100.00;102243.66;5016880;28;20032;-91
2021/11/14 08:58:52;;;;;;;69.07;36.97;;;;;;;8.68;100.00;102249.72;5030740;28;20086;-91
2021/11/14 09:01:18;;;;;;;74.18;37.55;;;;;;;8.65;100.00;102247.22;5028890;28;20132;-91
2021/11/14 09:03:43;;;;;;;61.55;34.58;;;;;;;8.66;100.00;102257.00;5012885;28;20033;-91
2021/11/14 09:06:08;;;;;;;67.63;34.20;;;;;;;8.68;100.00;102254.22;5030495;28;20033;-91
2021/11/14 09:08:34;;;;;;;72.57;35.83;;;;;;;8.62;100.00;102260.78;5031663;28;20068;-91
2021/11/14 09:11:00;;;;;;;68.53;35.97;;;;;;;8.64;100.00;102263.41;5029688;28;20116;-91
2021/11/14 09:13:26;;;;;;;70.60;33.72;;;;;;;8.64;100.00;102264.25;5039714;28;20041;-91
2021/11/14 09:15:52;;;;;;;62.40;31.75;;;;;;;8.63;100.00;102262.53;5017344;28;20111;-91
2021/11/14 09:18:18;;;;;;;58.38;30.73;;;;;;;8.66;100.00;102265.06;5033229;28;20080;-91
2021/11/14 09:20:47;;;;;;;62.05;31.67;;;;;;;8.69;100.00;102267.56;5016351;28;20029;-91
2021/11/14 09:23:14;;;;;;;55.25;28.80;;;;;;;8.67;100.00;102269.47;5032870;28;20504;-91
2021/11/14 09:25:40;;;;;;;58.65;30.30;;;;;;;8.67;100.00;102264.09;5034530;28;20123;-91
2021/11/14 09:28:07;;;;;;;51.28;27.33;;;;;;;8.73;100.00;102274.47;5041616;28;20009;-91
2021/11/14 09:30:33;;;;;;;48.00;27.13;;;;;;;8.80;100.00;102274.13;5032644;28;20029;-91
2021/11/14 09:32:58;;;;;;;46.67;26.50;;;;;;;8.86;100.00;102276.47;5016655;28;20033;-90
2021/11/14 09:35:24;;;;;;;47.53;27.10;;;;;;;8.87;100.00;102280.88;5016135;28;20030;-91
2021/11/14 09:37:49;;;;;;;43.03;23.80;;;;;;;8.94;100.00;102283.13;5032297;28;20029;-91
2021/11/14 09:40:14;;;;;;;45.17;25.73;;;;;;;8.98;100.00;102284.69;5032760;28;20017;-91
2021/11/14 09:42:40;;;;;;;49.10;26.48;;;;;;;9.01;100.00;102283.66;5033994;28;20401;-91
2021/11/14 09:45:08;;;;;;;43.28;24.48;;;;;;;9.04;100.00;102288.84;5020473;28;20013;-91
2021/11/14 09:47:35;;;;;;;46.20;25.35;;;;;;;9.03;100.00;102289.81;5036749;28;20045;-91
2021/11/14 09:50:04;;;;;;;42.95;25.45;;;;;;;9.05;100.00;102285.19;5015860;28;20112;-91
2021/11/14 09:52:29;;;;;;;35.80;21.83;;;;;;;9.10;100.00;102293.00;5032651;28;20443;-91
2021/11/14 09:54:54;;;;;;;37.88;22.05;;;;;;;9.06;100.00;102296.78;5034544;28;20029;-91
2021/11/14 09:57:20;;;;;;;36.20;21.40;;;;;;;9.11;100.00;102302.75;5035339;28;20025;-91
2021/11/14 09:59:46;;;;;;;31.25;20.27;;;;;;;9.07;100.00;102294.03;5045648;28;20073;-91
2021/11/14 10:02:12;;;;;;;32.40;20.83;;;;;;;9.09;100.00;102300.19;5021840;28;20409;-91
2021/11/14 10:04:38;;;;;;;33.55;19.92;;;;;;;9.13;100.00;102304.41;5032803;28;20397;-91
2021/11/14 10:07:15;;;;;;;31.88;20.40;;;;;;;9.14;100.00;102299.91;5016190;28;20033;-91
2021/11/14 10:09:59;;;;;;;29.63;19.35;;;;;;;9.11;100.00;102300.94;5032595;28;20045;-91
2021/11/14 10:12:28;;;;;;;32.35;20.08;;;;;;;9.14;100.00;102306.13;5017364;28;20549;-91
2021/11/14 10:15:05;;;;;;;34.33;21.10;;;;;;;9.15;100.00;102302.50;5036142;28;20489;-91
2021/11/14 10:17:31;;;;;;;34.75;20.58;;;;;;;9.12;100.00;102302.69;5021446;28;20152;-91
2021/11/14 10:20:06;;;;;;;31.88;21.02;;;;;;;9.14;100.00;102303.44;5016247;28;20057;-91
2021/11/14 10:22:32;;;;;;;34.63;20.83;;;;;;;9.13;100.00;102306.22;5015326;28;20025;-91
2021/11/14 10:24:58;;;;;;;34.10;20.65;;;;;;;9.16;100.00;102304.22;5032306;28;20029;-91
2021/11/14 10:27:28;;;;;;;32.95;20.95;;;;;;;9.12;100.00;102318.78;5037150;28;20051;-91
2021/11/14 10:29:54;;;;;;;29.40;19.00;;;;;;;9.08;100.00;102319.91;5022097;28;20101;-91
2021/11/14 10:32:20;;;;;;;36.15;21.88;;;;;;;9.08;100.00;102311.84;5015225;28;20083;-91
2021/11/14 10:34:57;;;;;;;36.80;21.08;;;;;;;9.08;100.00;102308.31;5034396;28;20033;-91
2021/11/14 10:37:23;;;;;;;33.33;21.42;;;;;;;9.04;100.00;102318.34;5018121;28;20389;-90
2021/11/14 10:39:54;;;;;;;37.15;22.83;;;;;;;9.06;100.00;102323.63;5018224;28;20113;-91
2021/11/14 10:42:20;;;;;;;47.55;25.30;;;;;;;9.02;100.00;102328.31;5037702;28;20360;-90
2021/11/14 10:44:52;;;;;;;34.13;21.65;;;;;;;9.06;100.00;102337.94;5020091;28;20064;-91
2021/11/14 10:47:22;;;;;;;42.28;25.42;;;;;;;9.04;100.00;102336.28;5035516;28;20026;-91
2021/11/14 10:49:56;;;;;;;37.25;22.38;;;;;;;9.08;100.00;102340.50;5035529;28;20076;-91
2021/11/14 10:52:23;;;;;;;45.88;24.60;;;;;;;9.06;100.00;102340.63;5017856;28;20026;-91
2021/11/14 10:55:14;;;;;;;38.65;23.77;;;;;;;9.08;100.00;102345.88;5018194;28;20033;-91
2021/11/14 10:57:40;;;;;;;41.90;24.52;;;;;;;9.07;100.00;102350.38;5013914;28;20405;-91
2021/11/14 11:00:11;;;;;;;46.58;25.70;;;;;;;8.94;100.00;102352.91;5039073;28;20033;-91
2021/11/14 11:02:45;;;;;;;55.35;28.23;;;;;;;8.99;100.00;102358.00;5033508;28;20053;-90
2021/11/14 11:05:14;;;;;;;54.38;28.10;;;;;;;8.97;100.00;102363.47;5034327;28;20470;-91